createdAt,value
2022-09-28T00:01:40.309Z,981.09
2022-09-28T00:07:24.269Z,981.09
2022-09-28T00:13:07.706Z,981.04
2022-09-28T00:18:51.472Z,981.04
2022-09-28T00:24:34.975Z,981.01
2022-09-28T00:30:18.480Z,981.01
2022-09-28T00:36:02.233Z,980.99
2022-09-28T00:41:46.479Z,980.99
2022-09-28T00:47:41.227Z,980.99
2022-09-28T00:53:26.770Z,981.02
2022-09-28T00:59:10.538Z,981.04
2022-09-28T01:04:54.175Z,981.03
2022-09-28T01:10:37.668Z,981.07
2022-09-28T01:16:26.929Z,981.09
2022-09-28T01:22:17.714Z,981.03
2022-09-28T01:28:05.055Z,980.97
2022-09-28T01:33:50.943Z,980.98
2022-09-28T01:39:35.533Z,980.95
2022-09-28T01:45:22.546Z,980.95
2022-09-28T01:51:10.804Z,980.99
2022-09-28T01:56:56.136Z,981.01
2022-09-28T02:02:40.884Z,981.06
2022-09-28T02:08:27.479Z,981.2
2022-09-28T02:14:11.828Z,981.29
2022-09-28T02:19:56.144Z,981.34
2022-09-28T02:25:40.926Z,981.29
2022-09-28T02:31:24.285Z,981.32
2022-09-28T02:37:07.729Z,981.37
2022-09-28T02:42:53.361Z,981.35
2022-09-28T02:49:05.184Z,981.36
2022-09-28T02:55:03.058Z,981.27
2022-09-28T03:00:52.529Z,981.24
2022-09-28T03:06:40.605Z,981.36
2022-09-28T03:12:25.342Z,981.4
2022-09-28T03:18:08.762Z,981.39
2022-09-28T03:23:52.054Z,981.27
2022-09-28T03:29:35.162Z,981.27
2022-09-28T03:35:18.546Z,981.22
2022-09-28T03:41:02.074Z,981.26
2022-09-28T03:46:46.929Z,981.22
2022-09-28T03:52:30.094Z,981.3
2022-09-28T03:58:13.379Z,981.29
2022-09-28T04:03:57.598Z,981.27
2022-09-28T04:09:41.574Z,981.31
2022-09-28T04:15:25.972Z,981.31
2022-09-28T04:21:11.779Z,981.31
2022-09-28T04:26:55.027Z,981.33
2022-09-28T04:32:38.165Z,981.42
2022-09-28T04:38:41.761Z,981.41
2022-09-28T04:44:24.341Z,981.4
2022-09-28T04:50:09.166Z,981.39
2022-09-28T04:56:00.536Z,981.36
2022-09-28T05:01:43.754Z,981.37
2022-09-28T05:07:27.186Z,981.44
2022-09-28T05:13:11.025Z,981.37
2022-09-28T05:18:54.771Z,981.38
2022-09-28T05:24:38.891Z,981.47
2022-09-28T05:30:22.158Z,981.47
2022-09-28T05:36:05.658Z,981.44
2022-09-28T05:41:48.979Z,981.51
2022-09-28T05:47:32.090Z,981.51
2022-09-28T05:53:15.593Z,981.6
2022-09-28T05:58:58.998Z,981.63
2022-09-28T06:04:42.163Z,981.68
2022-09-28T06:10:25.531Z,981.77
2022-09-28T06:16:09.074Z,981.79
2022-09-28T06:21:52.435Z,981.8
2022-09-28T06:27:35.658Z,981.84
2022-09-28T06:33:19.007Z,981.86
2022-09-28T06:39:02.137Z,981.91
2022-09-28T06:44:45.551Z,981.96
2022-09-28T06:50:29.798Z,981.97
2022-09-28T06:56:13.189Z,981.98
2022-09-28T07:01:56.288Z,981.97
2022-09-28T07:07:40.554Z,982.08
2022-09-28T07:13:48.274Z,982.19
2022-09-28T07:19:27.973Z,982.19
2022-09-28T07:25:11.378Z,982.26
2022-09-28T07:30:57.027Z,982.34
2022-09-28T07:36:40.481Z,982.39
2022-09-28T07:42:23.727Z,982.53
2022-09-28T07:48:07.980Z,982.54
2022-09-28T07:53:51.163Z,982.54
2022-09-28T07:59:34.343Z,982.56
2022-09-28T08:05:17.737Z,982.59
2022-09-28T08:11:01.083Z,982.67
2022-09-28T08:16:44.212Z,982.64
2022-09-28T08:22:32.563Z,982.72
2022-09-28T08:28:15.936Z,982.71
2022-09-28T08:33:59.491Z,982.78
2022-09-28T08:39:43.703Z,982.84
2022-09-28T08:45:28.040Z,982.89
2022-09-28T08:51:13.462Z,982.95
2022-09-28T08:56:59.753Z,982.92
2022-09-28T09:02:43.280Z,982.93
2022-09-28T09:08:35.372Z,982.97
2022-09-28T09:14:25.652Z,983.03
2022-09-28T09:20:14.618Z,983.03
2022-09-28T09:26:01.099Z,983.01
2022-09-28T09:31:52.394Z,983
2022-09-28T09:37:44.914Z,983.01
2022-09-28T09:43:38.646Z,983
2022-09-28T09:49:24.711Z,982.98
2022-09-28T09:55:13.175Z,982.96
2022-09-28T10:00:58.945Z,982.87
2022-09-28T10:06:42.858Z,982.93
2022-09-28T10:12:26.200Z,982.86
2022-09-28T10:18:11.628Z,982.87
2022-09-28T10:23:56.142Z,982.84
2022-09-28T10:29:46.442Z,982.87
2022-09-28T10:35:31.803Z,982.91
2022-09-28T10:41:15.396Z,982.85
2022-09-28T10:47:02.800Z,982.86
2022-09-28T10:52:45.902Z,982.91
2022-09-28T10:58:30.878Z,982.91
2022-09-28T11:04:19.454Z,982.96
2022-09-28T11:10:04.018Z,982.95
2022-09-28T11:15:47.258Z,982.95
2022-09-28T11:21:31.097Z,982.96
2022-09-28T11:27:19.930Z,982.95
2022-09-28T11:33:08.132Z,982.99
2022-09-28T11:38:56.234Z,982.96
2022-09-28T11:44:43.183Z,982.91
2022-09-28T11:50:31.619Z,982.97
2022-09-28T11:56:17.558Z,982.97
2022-09-28T12:02:04.111Z,982.95
2022-09-28T12:07:50.663Z,982.84
2022-09-28T12:13:35.728Z,982.86
2022-09-28T12:19:21.347Z,982.91
2022-09-28T12:25:07.425Z,982.85
2022-09-28T12:30:51.316Z,982.72
2022-09-28T12:36:41.838Z,982.71
2022-09-28T12:42:31.283Z,982.72
2022-09-28T12:48:28.721Z,982.7
2022-09-28T12:54:17.943Z,982.65
2022-09-28T13:00:05.231Z,982.66
2022-09-28T13:06:11.417Z,982.7
2022-09-28T13:12:05.947Z,982.63
2022-09-28T13:17:56.041Z,982.63
2022-09-28T13:23:41.426Z,982.68
2022-09-28T13:29:25.473Z,982.59
2022-09-28T13:35:13.415Z,982.56
2022-09-28T13:41:08.471Z,982.55
2022-09-28T13:46:57.518Z,982.56
2022-09-28T13:52:45.975Z,982.59
2022-09-28T13:58:31.266Z,982.58
2022-09-28T14:04:16.816Z,982.62
2022-09-28T14:10:17.606Z,982.63
2022-09-28T14:16:10.138Z,982.71
2022-09-28T14:22:10.546Z,982.69
2022-09-28T14:28:09.372Z,982.66
2022-09-28T14:33:59.225Z,982.64
2022-09-28T14:39:44.598Z,982.72
2022-09-28T14:45:39.218Z,982.74
2022-09-28T14:51:34.332Z,982.76
2022-09-28T14:57:21.310Z,982.76
2022-09-28T15:03:12.328Z,982.73
2022-09-28T15:08:55.573Z,982.76
2022-09-28T15:14:43.738Z,982.78
2022-09-28T15:20:28.418Z,982.8
2022-09-28T15:26:21.444Z,982.8
2022-09-28T15:32:04.665Z,982.85
2022-09-28T15:37:48.839Z,982.85
2022-09-28T15:43:33.412Z,982.84
2022-09-28T15:49:25.226Z,982.9
2022-09-28T15:55:17.457Z,982.91
2022-09-28T16:01:11.544Z,982.94
2022-09-28T16:07:08.593Z,982.96
2022-09-28T16:12:52.583Z,982.94
2022-09-28T16:18:39.687Z,982.92
2022-09-28T16:24:25.292Z,982.95
2022-09-28T16:30:19.221Z,982.98
2022-09-28T16:36:03.003Z,982.99
2022-09-28T16:41:49.140Z,982.99
2022-09-28T16:47:32.825Z,983.06
2022-09-28T16:53:16.847Z,983.03
2022-09-28T16:59:00.042Z,983.04
2022-09-28T17:04:48.211Z,983.1
2022-09-28T17:10:56.002Z,983.25
2022-09-28T17:17:06.416Z,983.18
2022-09-28T17:22:42.084Z,983.26
2022-09-28T17:28:27.076Z,983.26
2022-09-28T17:34:12.611Z,983.3
2022-09-28T17:39:55.977Z,983.28
2022-09-28T17:45:39.852Z,983.32
2022-09-28T17:51:23.029Z,983.32
2022-09-28T17:57:06.647Z,983.32
2022-09-28T18:02:51.700Z,983.34
2022-09-28T18:08:35.073Z,983.44
2022-09-28T18:14:18.319Z,983.44
2022-09-28T18:20:01.746Z,983.51
2022-09-28T18:25:45.654Z,983.55
2022-09-28T18:31:28.908Z,983.5
2022-09-28T18:37:12.485Z,983.6
2022-09-28T18:42:55.828Z,983.64
2022-09-28T18:48:39.384Z,983.61
2022-09-28T18:54:22.722Z,983.65
2022-09-28T19:00:09.007Z,983.65
2022-09-28T19:05:53.198Z,983.73
2022-09-28T19:11:37.246Z,983.77
2022-09-28T19:17:20.704Z,983.78
2022-09-28T19:23:03.774Z,983.78
2022-09-28T19:28:47.322Z,983.84
2022-09-28T19:34:30.589Z,983.86
2022-09-28T19:40:14.269Z,983.85
2022-09-28T19:46:03.087Z,983.84
2022-09-28T19:52:11.376Z,983.88
2022-09-28T19:57:50.154Z,983.95
2022-09-28T20:03:33.312Z,983.96
2022-09-28T20:09:16.668Z,983.99
2022-09-28T20:15:00.239Z,983.96
2022-09-28T20:20:43.762Z,983.98
2022-09-28T20:26:27.524Z,983.9
2022-09-28T20:32:10.755Z,983.93
2022-09-28T20:37:55.241Z,984
2022-09-28T20:43:38.348Z,983.99
2022-09-28T20:49:21.470Z,984.01
2022-09-28T20:55:04.819Z,983.97
2022-09-28T21:00:49.018Z,983.93
2022-09-28T21:06:33.822Z,983.97
2022-09-28T21:12:16.993Z,984.01
2022-09-28T21:18:00.110Z,983.96
2022-09-28T21:23:43.362Z,984.01
2022-09-28T21:29:26.550Z,984
2022-09-28T21:35:10.122Z,984.02
2022-09-28T21:40:59.099Z,984.03
2022-09-28T21:46:42.731Z,984.08
2022-09-28T21:52:26.266Z,984.15
2022-09-28T21:58:09.443Z,984.11
2022-09-28T22:03:53.255Z,984.11
2022-09-28T22:09:36.280Z,984.1
2022-09-28T22:15:19.408Z,984.13
2022-09-28T22:21:03.435Z,984.15
2022-09-28T22:26:46.778Z,984.23
2022-09-28T22:32:30.121Z,984.29
2022-09-28T22:38:13.341Z,984.32
2022-09-28T22:43:56.642Z,984.35
2022-09-28T22:49:39.880Z,984.33
2022-09-28T22:55:23.167Z,984.36
2022-09-28T23:01:10.766Z,984.37
2022-09-28T23:06:54.066Z,984.33
2022-09-28T23:12:37.270Z,984.29
2022-09-28T23:18:20.755Z,984.23
2022-09-28T23:24:03.995Z,984.21
2022-09-28T23:29:47.240Z,984.19
2022-09-28T23:35:30.422Z,984.2
2022-09-28T23:41:13.716Z,984.24
2022-09-28T23:46:57.122Z,984.15
2022-09-28T23:52:40.501Z,984.14
2022-09-28T23:58:23.670Z,984.11
